sensor_id;sensor_type;location;lat;lon;timestamp;temperature;humidity
46356;DHT22;32066;49.474;11.106;2023-03-03T00:00:14;11.90;52.40
46356;DHT22;32066;49.474;11.106;2023-03-03T00:02:43;11.90;52.50
46356;DHT22;32066;49.474;11.106;2023-03-03T00:05:12;11.90;52.40
46356;DHT22;32066;49.474;11.106;2023-03-03T00:07:43;11.80;52.40
46356;DHT22;32066;49.474;11.106;2023-03-03T00:10:13;11.80;52.40
46356;DHT22;32066;49.474;11.106;2023-03-03T00:12:49;11.80;52.40
46356;DHT22;32066;49.474;11.106;2023-03-03T00:15:19;11.80;52.40
46356;DHT22;32066;49.474;11.106;2023-03-03T00:17:48;11.80;52.40
46356;DHT22;32066;49.474;11.106;2023-03-03T00:20:38;11.70;52.40
46356;DHT22;32066;49.474;11.106;2023-03-03T00:23:16;11.70;52.30
46356;DHT22;32066;49.474;11.106;2023-03-03T00:25:48;11.70;52.30
46356;DHT22;32066;49.474;11.106;2023-03-03T00:28:23;11.70;52.20
46356;DHT22;32066;49.474;11.106;2023-03-03T00:30:53;11.70;52.30
46356;DHT22;32066;49.474;11.106;2023-03-03T00:33:26;11.70;52.30
46356;DHT22;32066;49.474;11.106;2023-03-03T00:38:42;11.60;52.30
46356;DHT22;32066;49.474;11.106;2023-03-03T00:41:15;11.60;52.30
46356;DHT22;32066;49.474;11.106;2023-03-03T00:43:50;11.60;52.30
46356;DHT22;32066;49.474;11.106;2023-03-03T00:46:20;11.60;52.30
46356;DHT22;32066;49.474;11.106;2023-03-03T00:48:50;11.60;52.20
46356;DHT22;32066;49.474;11.106;2023-03-03T00:51:27;11.60;52.30
46356;DHT22;32066;49.474;11.106;2023-03-03T00:53:57;11.50;52.20
46356;DHT22;32066;49.474;11.106;2023-03-03T00:56:26;11.50;52.20
46356;DHT22;32066;49.474;11.106;2023-03-03T00:58:58;11.50;52.20
46356;DHT22;32066;49.474;11.106;2023-03-03T01:01:28;11.50;52.30
46356;DHT22;32066;49.474;11.106;2023-03-03T01:03:57;11.50;52.20
46356;DHT22;32066;49.474;11.106;2023-03-03T01:06:25;11.50;52.20
46356;DHT22;32066;49.474;11.106;2023-03-03T01:08:54;11.40;52.20
46356;DHT22;32066;49.474;11.106;2023-03-03T01:11:25;11.40;52.20
46356;DHT22;32066;49.474;11.106;2023-03-03T01:13:54;11.40;52.20
46356;DHT22;32066;49.474;11.106;2023-03-03T01:16:28;11.40;52.20
46356;DHT22;32066;49.474;11.106;2023-03-03T01:18:57;11.30;52.20
46356;DHT22;32066;49.474;11.106;2023-03-03T01:21:26;11.30;52.20
46356;DHT22;32066;49.474;11.106;2023-03-03T01:23:54;11.30;52.20
46356;DHT22;32066;49.474;11.106;2023-03-03T01:26:23;11.30;52.10
46356;DHT22;32066;49.474;11.106;2023-03-03T01:28:51;11.30;52.20
46356;DHT22;32066;49.474;11.106;2023-03-03T01:31:20;11.30;52.20
46356;DHT22;32066;49.474;11.106;2023-03-03T01:33:51;11.30;52.20
46356;DHT22;32066;49.474;11.106;2023-03-03T01:36:22;11.20;52.20
46356;DHT22;32066;49.474;11.106;2023-03-03T01:38:51;11.20;52.30
46356;DHT22;32066;49.474;11.106;2023-03-03T01:41:20;11.20;52.20
46356;DHT22;32066;49.474;11.106;2023-03-03T01:43:49;11.20;52.10
46356;DHT22;32066;49.474;11.106;2023-03-03T01:46:40;11.20;52.10
46356;DHT22;32066;49.474;11.106;2023-03-03T01:49:17;11.10;52.10
46356;DHT22;32066;49.474;11.106;2023-03-03T01:51:50;11.10;52.10
46356;DHT22;32066;49.474;11.106;2023-03-03T01:54:24;11.10;52.00
46356;DHT22;32066;49.474;11.106;2023-03-03T01:56:57;11.10;52.10
46356;DHT22;32066;49.474;11.106;2023-03-03T01:59:29;11.00;52.10
46356;DHT22;32066;49.474;11.106;2023-03-03T02:01:59;11.00;52.00
46356;DHT22;32066;49.474;11.106;2023-03-03T02:04:30;11.00;52.10
46356;DHT22;32066;49.474;11.106;2023-03-03T02:07:01;11.00;52.00
46356;DHT22;32066;49.474;11.106;2023-03-03T02:09:40;11.00;52.00
46356;DHT22;32066;49.474;11.106;2023-03-03T02:12:13;11.00;52.00
46356;DHT22;32066;49.474;11.106;2023-03-03T02:14:44;11.00;52.10
46356;DHT22;32066;49.474;11.106;2023-03-03T02:17:12;10.90;51.90
46356;DHT22;32066;49.474;11.106;2023-03-03T02:19:51;10.90;52.50
46356;DHT22;32066;49.474;11.106;2023-03-03T02:22:31;10.90;51.90
46356;DHT22;32066;49.474;11.106;2023-03-03T02:25:05;10.90;51.90
46356;DHT22;32066;49.474;11.106;2023-03-03T02:27:38;10.80;51.90
46356;DHT22;32066;49.474;11.106;2023-03-03T02:30:10;10.80;52.50
46356;DHT22;32066;49.474;11.106;2023-03-03T02:32:39;10.80;52.00
46356;DHT22;32066;49.474;11.106;2023-03-03T02:35:30;10.80;52.00
46356;DHT22;32066;49.474;11.106;2023-03-03T02:38:08;10.80;52.10
46356;DHT22;32066;49.474;11.106;2023-03-03T02:40:49;10.70;52.00
46356;DHT22;32066;49.474;11.106;2023-03-03T02:43:24;10.70;52.10
46356;DHT22;32066;49.474;11.106;2023-03-03T02:45:54;10.70;52.00
46356;DHT22;32066;49.474;11.106;2023-03-03T02:48:23;10.70;52.10
46356;DHT22;32066;49.474;11.106;2023-03-03T02:50:52;10.70;52.10
46356;DHT22;32066;49.474;11.106;2023-03-03T02:53:21;10.60;52.00
46356;DHT22;32066;49.474;11.106;2023-03-03T02:55:51;10.70;52.10
46356;DHT22;32066;49.474;11.106;2023-03-03T02:58:22;10.60;52.10
46356;DHT22;32066;49.474;11.106;2023-03-03T03:00:51;10.60;52.10
46356;DHT22;32066;49.474;11.106;2023-03-03T03:03:22;10.60;52.10
46356;DHT22;32066;49.474;11.106;2023-03-03T03:05:51;10.60;52.10
46356;DHT22;32066;49.474;11.106;2023-03-03T03:08:21;10.60;52.10
46356;DHT22;32066;49.474;11.106;2023-03-03T03:10:50;10.50;52.00
46356;DHT22;32066;49.474;11.106;2023-03-03T03:13:18;10.60;52.10
46356;DHT22;32066;49.474;11.106;2023-03-03T03:15:50;10.50;52.10
46356;DHT22;32066;49.474;11.106;2023-03-03T03:18:19;10.50;52.10
46356;DHT22;32066;49.474;11.106;2023-03-03T03:20:49;10.40;52.10
46356;DHT22;32066;49.474;11.106;2023-03-03T03:23:17;10.40;52.00
46356;DHT22;32066;49.474;11.106;2023-03-03T03:25:46;10.40;52.10
46356;DHT22;32066;49.474;11.106;2023-03-03T03:28:22;10.40;52.10
46356;DHT22;32066;49.474;11.106;2023-03-03T03:30:53;10.40;52.20
46356;DHT22;32066;49.474;11.106;2023-03-03T03:33:22;10.40;52.10
46356;DHT22;32066;49.474;11.106;2023-03-03T03:35:53;10.40;52.10
46356;DHT22;32066;49.474;11.106;2023-03-03T03:38:23;10.30;52.10
46356;DHT22;32066;49.474;11.106;2023-03-03T03:40:52;10.30;52.10
46356;DHT22;32066;49.474;11.106;2023-03-03T03:43:21;10.30;52.10
46356;DHT22;32066;49.474;11.106;2023-03-03T03:45:52;10.20;52.10
46356;DHT22;32066;49.474;11.106;2023-03-03T03:48:21;10.30;52.20
46356;DHT22;32066;49.474;11.106;2023-03-03T03:50:50;10.20;52.10
46356;DHT22;32066;49.474;11.106;2023-03-03T03:53:20;10.20;52.10
46356;DHT22;32066;49.474;11.106;2023-03-03T03:55:49;10.20;52.10
46356;DHT22;32066;49.474;11.106;2023-03-03T03:58:18;10.20;52.20
46356;DHT22;32066;49.474;11.106;2023-03-03T04:01:01;10.10;52.10
46356;DHT22;32066;49.474;11.106;2023-03-03T04:03:30;10.10;52.10
46356;DHT22;32066;49.474;11.106;2023-03-03T04:05:59;10.10;52.10
46356;DHT22;32066;49.474;11.106;2023-03-03T04:08:27;10.10;52.20
46356;DHT22;32066;49.474;11.106;2023-03-03T04:10:56;10.10;52.30
46356;DHT22;32066;49.474;11.106;2023-03-03T04:13:26;10.00;52.30
46356;DHT22;32066;49.474;11.106;2023-03-03T04:16:00;10.00;52.20
46356;DHT22;32066;49.474;11.106;2023-03-03T04:18:29;10.00;52.20
46356;DHT22;32066;49.474;11.106;2023-03-03T04:20:58;10.00;52.10
46356;DHT22;32066;49.474;11.106;2023-03-03T04:23:27;10.00;52.20
46356;DHT22;32066;49.474;11.106;2023-03-03T04:25:56;9.90;52.10
46356;DHT22;32066;49.474;11.106;2023-03-03T04:28:24;9.90;52.20
46356;DHT22;32066;49.474;11.106;2023-03-03T04:30:53;10.00;52.10
46356;DHT22;32066;49.474;11.106;2023-03-03T04:33:26;9.90;52.00
46356;DHT22;32066;49.474;11.106;2023-03-03T04:35:55;9.90;52.10
46356;DHT22;32066;49.474;11.106;2023-03-03T04:38:24;9.90;52.20
46356;DHT22;32066;49.474;11.106;2023-03-03T04:40:55;9.90;53.20
46356;DHT22;32066;49.474;11.106;2023-03-03T04:43:26;9.80;55.00
46356;DHT22;32066;49.474;11.106;2023-03-03T04:45:55;9.80;56.00
46356;DHT22;32066;49.474;11.106;2023-03-03T04:48:27;9.90;56.80
46356;DHT22;32066;49.474;11.106;2023-03-03T04:50:56;9.80;57.20
46356;DHT22;32066;49.474;11.106;2023-03-03T04:53:26;9.80;57.60
46356;DHT22;32066;49.474;11.106;2023-03-03T04:55:55;9.80;58.00
46356;DHT22;32066;49.474;11.106;2023-03-03T04:58:24;9.90;58.20
46356;DHT22;32066;49.474;11.106;2023-03-03T05:00:56;9.80;57.70
46356;DHT22;32066;49.474;11.106;2023-03-03T05:03:29;9.80;57.00
46356;DHT22;32066;49.474;11.106;2023-03-03T05:05:59;9.80;56.60
46356;DHT22;32066;49.474;11.106;2023-03-03T05:08:27;9.80;56.20
46356;DHT22;32066;49.474;11.106;2023-03-03T05:10:56;9.70;55.80
46356;DHT22;32066;49.474;11.106;2023-03-03T05:13:26;9.70;55.50
46356;DHT22;32066;49.474;11.106;2023-03-03T05:15:55;9.70;55.30
46356;DHT22;32066;49.474;11.106;2023-03-03T05:18:25;9.70;55.20
46356;DHT22;32066;49.474;11.106;2023-03-03T05:20:56;9.70;55.00
46356;DHT22;32066;49.474;11.106;2023-03-03T05:23:25;9.60;54.90
46356;DHT22;32066;49.474;11.106;2023-03-03T05:25:54;9.70;54.80
46356;DHT22;32066;49.474;11.106;2023-03-03T05:28:22;9.60;54.60
46356;DHT22;32066;49.474;11.106;2023-03-03T05:30:51;9.60;54.50
46356;DHT22;32066;49.474;11.106;2023-03-03T05:33:20;9.60;54.50
46356;DHT22;32066;49.474;11.106;2023-03-03T05:35:53;9.50;54.30
46356;DHT22;32066;49.474;11.106;2023-03-03T05:38:24;9.50;54.40
46356;DHT22;32066;49.474;11.106;2023-03-03T05:40:53;9.50;54.30
46356;DHT22;32066;49.474;11.106;2023-03-03T05:43:22;9.50;54.20
46356;DHT22;32066;49.474;11.106;2023-03-03T05:45:54;9.50;54.20
46356;DHT22;32066;49.474;11.106;2023-03-03T05:48:23;9.50;54.10
46356;DHT22;32066;49.474;11.106;2023-03-03T05:50:51;9.50;53.90
46356;DHT22;32066;49.474;11.106;2023-03-03T05:53:20;9.40;53.80
46356;DHT22;32066;49.474;11.106;2023-03-03T05:55:51;9.40;53.90
46356;DHT22;32066;49.474;11.106;2023-03-03T05:58:20;9.40;53.80
46356;DHT22;32066;49.474;11.106;2023-03-03T06:00:48;9.40;53.80
46356;DHT22;32066;49.474;11.106;2023-03-03T06:03:17;9.40;53.70
46356;DHT22;32066;49.474;11.106;2023-03-03T06:05:45;9.40;53.70
46356;DHT22;32066;49.474;11.106;2023-03-03T06:08:14;9.40;53.70
46356;DHT22;32066;49.474;11.106;2023-03-03T06:10:43;9.40;53.70
46356;DHT22;32066;49.474;11.106;2023-03-03T06:13:16;9.40;53.60
46356;DHT22;32066;49.474;11.106;2023-03-03T06:15:45;9.30;53.60
46356;DHT22;32066;49.474;11.106;2023-03-03T06:18:13;9.30;53.70
46356;DHT22;32066;49.474;11.106;2023-03-03T06:20:42;9.30;53.70
46356;DHT22;32066;49.474;11.106;2023-03-03T06:23:10;9.30;53.70
46356;DHT22;32066;49.474;11.106;2023-03-03T06:25:39;9.30;53.60
46356;DHT22;32066;49.474;11.106;2023-03-03T06:28:09;9.30;53.70
46356;DHT22;32066;49.474;11.106;2023-03-03T06:30:40;9.30;53.70
46356;DHT22;32066;49.474;11.106;2023-03-03T06:33:09;9.30;53.70
46356;DHT22;32066;49.474;11.106;2023-03-03T06:35:37;9.30;53.60
46356;DHT22;32066;49.474;11.106;2023-03-03T06:38:06;9.30;53.70
46356;DHT22;32066;49.474;11.106;2023-03-03T06:40:35;9.30;53.70
46356;DHT22;32066;49.474;11.106;2023-03-03T06:43:03;9.40;53.70
46356;DHT22;32066;49.474;11.106;2023-03-03T06:45:32;9.40;53.70
46356;DHT22;32066;49.474;11.106;2023-03-03T06:48:04;9.40;53.70
46356;DHT22;32066;49.474;11.106;2023-03-03T06:50:32;9.40;53.60
46356;DHT22;32066;49.474;11.106;2023-03-03T06:53:09;9.40;53.60
46356;DHT22;32066;49.474;11.106;2023-03-03T06:55:39;9.50;53.70
46356;DHT22;32066;49.474;11.106;2023-03-03T06:58:12;9.50;53.60
46356;DHT22;32066;49.474;11.106;2023-03-03T07:00:42;9.60;53.50
46356;DHT22;32066;49.474;11.106;2023-03-03T07:03:18;9.60;53.50
46356;DHT22;32066;49.474;11.106;2023-03-03T07:05:49;9.70;53.50
46356;DHT22;32066;49.474;11.106;2023-03-03T07:08:20;9.80;53.50
46356;DHT22;32066;49.474;11.106;2023-03-03T07:10:50;9.80;53.60
46356;DHT22;32066;49.474;11.106;2023-03-03T07:13:21;9.80;54.10
46356;DHT22;32066;49.474;11.106;2023-03-03T07:15:51;9.80;53.60
46356;DHT22;32066;49.474;11.106;2023-03-03T07:18:35;9.90;53.60
46356;DHT22;32066;49.474;11.106;2023-03-03T07:21:15;9.90;53.70
46356;DHT22;32066;49.474;11.106;2023-03-03T07:23:45;9.90;53.60
46356;DHT22;32066;49.474;11.106;2023-03-03T07:26:16;9.90;53.50
46356;DHT22;32066;49.474;11.106;2023-03-03T07:28:52;9.90;53.60
46356;DHT22;32066;49.474;11.106;2023-03-03T07:31:28;10.00;53.60
46356;DHT22;32066;49.474;11.106;2023-03-03T07:34:00;10.10;53.50
46356;DHT22;32066;49.474;11.106;2023-03-03T07:36:34;10.20;53.40
46356;DHT22;32066;49.474;11.106;2023-03-03T07:39:27;10.40;53.80
46356;DHT22;32066;49.474;11.106;2023-03-03T07:42:14;10.40;53.30
46356;DHT22;32066;49.474;11.106;2023-03-03T07:44:50;10.50;53.00
46356;DHT22;32066;49.474;11.106;2023-03-03T07:47:22;10.60;53.10
46356;DHT22;32066;49.474;11.106;2023-03-03T07:49:55;10.70;53.50
46356;DHT22;32066;49.474;11.106;2023-03-03T07:52:30;10.80;53.60
46356;DHT22;32066;49.474;11.106;2023-03-03T07:55:29;11.00;53.70
46356;DHT22;32066;49.474;11.106;2023-03-03T07:58:14;11.10;53.70
46356;DHT22;32066;49.474;11.106;2023-03-03T08:03:54;11.40;53.60
46356;DHT22;32066;49.474;11.106;2023-03-03T08:06:39;11.60;53.10
46356;DHT22;32066;49.474;11.106;2023-03-03T08:09:34;11.70;52.90
46356;DHT22;32066;49.474;11.106;2023-03-03T08:12:27;11.90;52.70
46356;DHT22;32066;49.474;11.106;2023-03-03T08:14:57;12.10;52.50
46356;DHT22;32066;49.474;11.106;2023-03-03T08:17:38;12.30;52.30
46356;DHT22;32066;49.474;11.106;2023-03-03T08:23:20;12.70;51.70
46356;DHT22;32066;49.474;11.106;2023-03-03T08:25:50;12.90;51.50
46356;DHT22;32066;49.474;11.106;2023-03-03T08:28:20;13.10;51.30
46356;DHT22;32066;49.474;11.106;2023-03-03T08:30:49;13.30;51.10
46356;DHT22;32066;49.474;11.106;2023-03-03T08:33:18;13.50;51.00
46356;DHT22;32066;49.474;11.106;2023-03-03T08:35:47;13.70;50.70
46356;DHT22;32066;49.474;11.106;2023-03-03T08:38:17;13.80;50.60
46356;DHT22;32066;49.474;11.106;2023-03-03T08:40:49;14.00;50.20
46356;DHT22;32066;49.474;11.106;2023-03-03T08:43:18;14.20;62.10
46356;DHT22;32066;49.474;11.106;2023-03-03T08:45:48;13.10;49.20
46356;DHT22;32066;49.474;11.106;2023-03-03T08:48:18;12.40;49.20
46356;DHT22;32066;49.474;11.106;2023-03-03T08:50:46;12.20;50.30
46356;DHT22;32066;49.474;11.106;2023-03-03T08:53:16;11.90;50.40
46356;DHT22;32066;49.474;11.106;2023-03-03T08:55:45;11.70;51.00
46356;DHT22;32066;49.474;11.106;2023-03-03T08:58:18;11.60;51.10
46356;DHT22;32066;49.474;11.106;2023-03-03T09:00:47;11.30;51.50
46356;DHT22;32066;49.474;11.106;2023-03-03T09:03:15;11.20;52.00
46356;DHT22;32066;49.474;11.106;2023-03-03T09:05:44;11.30;51.50
46356;DHT22;32066;49.474;11.106;2023-03-03T09:08:13;10.90;51.80
46356;DHT22;32066;49.474;11.106;2023-03-03T09:10:41;11.20;52.10
46356;DHT22;32066;49.474;11.106;2023-03-03T09:13:13;11.40;51.30
46356;DHT22;32066;49.474;11.106;2023-03-03T09:15:46;11.60;51.40
46356;DHT22;32066;49.474;11.106;2023-03-03T09:18:17;11.80;51.00
46356;DHT22;32066;49.474;11.106;2023-03-03T09:20:49;11.80;50.80
46356;DHT22;32066;49.474;11.106;2023-03-03T09:23:35;11.80;50.80
46356;DHT22;32066;49.474;11.106;2023-03-03T09:26:34;11.70;51.50
46356;DHT22;32066;49.474;11.106;2023-03-03T09:29:23;11.70;51.60
46356;DHT22;32066;49.474;11.106;2023-03-03T09:31:57;12.00;51.50
46356;DHT22;32066;49.474;11.106;2023-03-03T09:34:36;11.90;50.50
46356;DHT22;32066;49.474;11.106;2023-03-03T09:37:17;11.80;50.40
46356;DHT22;32066;49.474;11.106;2023-03-03T09:39:48;11.90;50.80
46356;DHT22;32066;49.474;11.106;2023-03-03T09:45:25;12.40;50.50
46356;DHT22;32066;49.474;11.106;2023-03-03T09:48:22;12.30;49.50
46356;DHT22;32066;49.474;11.106;2023-03-03T09:51:02;12.20;49.50
46356;DHT22;32066;49.474;11.106;2023-03-03T09:53:46;11.80;50.50
46356;DHT22;32066;49.474;11.106;2023-03-03T09:56:22;12.00;50.50
46356;DHT22;32066;49.474;11.106;2023-03-03T09:58:55;12.00;50.20
46356;DHT22;32066;49.474;11.106;2023-03-03T10:01:49;11.90;50.70
46356;DHT22;32066;49.474;11.106;2023-03-03T10:04:35;12.00;50.70
46356;DHT22;32066;49.474;11.106;2023-03-03T10:07:18;12.20;50.40
46356;DHT22;32066;49.474;11.106;2023-03-03T10:12:49;11.90;50.20
46356;DHT22;32066;49.474;11.106;2023-03-03T10:15:31;11.70;50.90
46356;DHT22;32066;49.474;11.106;2023-03-03T10:18:12;11.90;50.80
46356;DHT22;32066;49.474;11.106;2023-03-03T10:20:57;12.20;50.40
46356;DHT22;32066;49.474;11.106;2023-03-03T10:23:51;12.40;50.60
46356;DHT22;32066;49.474;11.106;2023-03-03T10:26:36;12.40;50.30
46356;DHT22;32066;49.474;11.106;2023-03-03T10:29:23;12.20;50.70
46356;DHT22;32066;49.474;11.106;2023-03-03T10:32:11;12.20;50.30
46356;DHT22;32066;49.474;11.106;2023-03-03T10:34:53;12.40;50.30
46356;DHT22;32066;49.474;11.106;2023-03-03T10:37:33;12.40;50.10
46356;DHT22;32066;49.474;11.106;2023-03-03T10:40:15;12.20;50.60
46356;DHT22;32066;49.474;11.106;2023-03-03T10:43:04;12.20;50.50
46356;DHT22;32066;49.474;11.106;2023-03-03T10:46:08;12.40;49.70
46356;DHT22;32066;49.474;11.106;2023-03-03T10:51:37;13.00;49.70
46356;DHT22;32066;49.474;11.106;2023-03-03T10:54:27;13.30;48.70
46356;DHT22;32066;49.474;11.106;2023-03-03T10:57:02;13.40;48.40
46356;DHT22;32066;49.474;11.106;2023-03-03T10:59:42;13.70;48.20
46356;DHT22;32066;49.474;11.106;2023-03-03T11:02:21;13.70;47.90
46356;DHT22;32066;49.474;11.106;2023-03-03T11:05:10;13.90;47.50
46356;DHT22;32066;49.474;11.106;2023-03-03T11:07:46;14.00;47.30
46356;DHT22;32066;49.474;11.106;2023-03-03T11:10:26;14.00;46.60
46356;DHT22;32066;49.474;11.106;2023-03-03T11:13:05;14.20;46.30
46356;DHT22;32066;49.474;11.106;2023-03-03T11:16:03;14.20;46.20
46356;DHT22;32066;49.474;11.106;2023-03-03T11:18:41;14.30;46.20
46356;DHT22;32066;49.474;11.106;2023-03-03T11:21:17;14.40;45.80
46356;DHT22;32066;49.474;11.106;2023-03-03T11:26:57;14.80;45.50
46356;DHT22;32066;49.474;11.106;2023-03-03T11:29:36;14.90;45.30
46356;DHT22;32066;49.474;11.106;2023-03-03T11:32:20;15.10;44.90
46356;DHT22;32066;49.474;11.106;2023-03-03T11:34:57;15.20;44.90
46356;DHT22;32066;49.474;11.106;2023-03-03T11:37:34;15.30;44.70
46356;DHT22;32066;49.474;11.106;2023-03-03T11:40:12;15.40;44.30
46356;DHT22;32066;49.474;11.106;2023-03-03T11:42:55;15.70;44.30
46356;DHT22;32066;49.474;11.106;2023-03-03T11:45:30;15.70;44.00
46356;DHT22;32066;49.474;11.106;2023-03-03T11:48:06;15.90;43.60
46356;DHT22;32066;49.474;11.106;2023-03-03T11:50:40;16.00;43.50
46356;DHT22;32066;49.474;11.106;2023-03-03T11:53:24;16.10;43.30
46356;DHT22;32066;49.474;11.106;2023-03-03T11:55:57;16.30;43.60
46356;DHT22;32066;49.474;11.106;2023-03-03T11:58:35;16.40;43.00
46356;DHT22;32066;49.474;11.106;2023-03-03T12:01:13;16.40;43.00
46356;DHT22;32066;49.474;11.106;2023-03-03T12:03:47;16.50;42.90
46356;DHT22;32066;49.474;11.106;2023-03-03T12:06:23;16.60;42.30
46356;DHT22;32066;49.474;11.106;2023-03-03T12:09:06;16.70;42.60
46356;DHT22;32066;49.474;11.106;2023-03-03T12:11:46;16.80;42.30
46356;DHT22;32066;49.474;11.106;2023-03-03T12:14:29;16.80;42.30
46356;DHT22;32066;49.474;11.106;2023-03-03T12:17:05;16.80;42.40
46356;DHT22;32066;49.474;11.106;2023-03-03T12:19:47;16.90;42.50
46356;DHT22;32066;49.474;11.106;2023-03-03T12:22:28;16.70;43.80
46356;DHT22;32066;49.474;11.106;2023-03-03T12:25:22;16.80;44.70
46356;DHT22;32066;49.474;11.106;2023-03-03T12:27:57;17.10;43.60
46356;DHT22;32066;49.474;11.106;2023-03-03T12:33:50;17.50;42.10
46356;DHT22;32066;49.474;11.106;2023-03-03T12:36:42;17.70;41.90
46356;DHT22;32066;49.474;11.106;2023-03-03T12:39:28;18.00;42.00
46356;DHT22;32066;49.474;11.106;2023-03-03T12:42:09;18.20;41.60
46356;DHT22;32066;49.474;11.106;2023-03-03T12:44:43;18.10;41.00
46356;DHT22;32066;49.474;11.106;2023-03-03T12:47:15;18.00;41.30
46356;DHT22;32066;49.474;11.106;2023-03-03T12:49:54;18.40;41.70
46356;DHT22;32066;49.474;11.106;2023-03-03T12:52:32;18.70;41.10
46356;DHT22;32066;49.474;11.106;2023-03-03T12:55:13;18.70;40.90
46356;DHT22;32066;49.474;11.106;2023-03-03T12:57:50;18.90;40.40
46356;DHT22;32066;49.474;11.106;2023-03-03T13:00:27;18.90;40.30
46356;DHT22;32066;49.474;11.106;2023-03-03T13:03:02;19.00;40.50
46356;DHT22;32066;49.474;11.106;2023-03-03T13:05:44;19.00;39.80
46356;DHT22;32066;49.474;11.106;2023-03-03T13:08:28;19.00;40.60
46356;DHT22;32066;49.474;11.106;2023-03-03T13:11:12;19.10;40.20
46356;DHT22;32066;49.474;11.106;2023-03-03T13:13:47;19.30;40.00
46356;DHT22;32066;49.474;11.106;2023-03-03T13:16:23;19.20;39.90
46356;DHT22;32066;49.474;11.106;2023-03-03T13:18:56;19.10;39.90
46356;DHT22;32066;49.474;11.106;2023-03-03T13:21:30;19.10;40.00
46356;DHT22;32066;49.474;11.106;2023-03-03T13:24:06;19.50;39.90
46356;DHT22;32066;49.474;11.106;2023-03-03T13:26:43;19.90;39.60
46356;DHT22;32066;49.474;11.106;2023-03-03T13:29:19;20.10;39.40
46356;DHT22;32066;49.474;11.106;2023-03-03T13:31:50;20.40;39.10
46356;DHT22;32066;49.474;11.106;2023-03-03T13:34:24;20.50;38.60
46356;DHT22;32066;49.474;11.106;2023-03-03T13:37:01;20.40;38.30
46356;DHT22;32066;49.474;11.106;2023-03-03T13:39:33;20.60;37.90
46356;DHT22;32066;49.474;11.106;2023-03-03T13:42:10;20.80;37.90
46356;DHT22;32066;49.474;11.106;2023-03-03T13:44:45;20.80;37.20
46356;DHT22;32066;49.474;11.106;2023-03-03T13:47:24;20.90;36.90
46356;DHT22;32066;49.474;11.106;2023-03-03T13:50:03;20.60;40.20
46356;DHT22;32066;49.474;11.106;2023-03-03T13:52:41;21.00;40.70
46356;DHT22;32066;49.474;11.106;2023-03-03T13:55:21;20.90;41.10
46356;DHT22;32066;49.474;11.106;2023-03-03T13:57:58;21.00;37.50
46356;DHT22;32066;49.474;11.106;2023-03-03T14:00:43;21.20;35.90
46356;DHT22;32066;49.474;11.106;2023-03-03T14:06:34;21.20;35.60
46356;DHT22;32066;49.474;11.106;2023-03-03T14:09:29;21.30;35.50
46356;DHT22;32066;49.474;11.106;2023-03-03T14:12:08;21.20;35.50
46356;DHT22;32066;49.474;11.106;2023-03-03T14:14:46;20.90;35.70
46356;DHT22;32066;49.474;11.106;2023-03-03T14:17:27;21.00;35.80
46356;DHT22;32066;49.474;11.106;2023-03-03T14:20:09;21.20;35.70
46356;DHT22;32066;49.474;11.106;2023-03-03T14:22:44;21.30;35.60
46356;DHT22;32066;49.474;11.106;2023-03-03T14:25:17;21.10;35.30
46356;DHT22;32066;49.474;11.106;2023-03-03T14:28:03;21.10;35.30
46356;DHT22;32066;49.474;11.106;2023-03-03T14:30:40;21.20;35.30
46356;DHT22;32066;49.474;11.106;2023-03-03T14:33:19;21.10;35.30
46356;DHT22;32066;49.474;11.106;2023-03-03T14:35:51;21.00;35.40
46356;DHT22;32066;49.474;11.106;2023-03-03T14:38:38;21.20;35.20
46356;DHT22;32066;49.474;11.106;2023-03-03T14:41:16;20.80;35.60
46356;DHT22;32066;49.474;11.106;2023-03-03T14:43:55;20.60;35.60
46356;DHT22;32066;49.474;11.106;2023-03-03T14:46:35;20.10;35.70
46356;DHT22;32066;49.474;11.106;2023-03-03T14:49:12;20.20;36.80
46356;DHT22;32066;49.474;11.106;2023-03-03T14:51:42;19.80;36.90
46356;DHT22;32066;49.474;11.106;2023-03-03T14:54:20;20.10;36.40
46356;DHT22;32066;49.474;11.106;2023-03-03T14:57:06;20.30;36.20
46356;DHT22;32066;49.474;11.106;2023-03-03T14:59:40;20.60;36.20
46356;DHT22;32066;49.474;11.106;2023-03-03T15:02:30;20.40;36.30
46356;DHT22;32066;49.474;11.106;2023-03-03T15:05:19;20.50;36.50
46356;DHT22;32066;49.474;11.106;2023-03-03T15:07:50;20.50;36.50
46356;DHT22;32066;49.474;11.106;2023-03-03T15:10:30;20.60;36.50
46356;DHT22;32066;49.474;11.106;2023-03-03T15:13:12;20.50;36.30
46356;DHT22;32066;49.474;11.106;2023-03-03T15:16:03;20.40;36.50
46356;DHT22;32066;49.474;11.106;2023-03-03T15:18:33;20.10;36.20
46356;DHT22;32066;49.474;11.106;2023-03-03T15:21:04;19.70;37.30
46356;DHT22;32066;49.474;11.106;2023-03-03T15:23:44;19.90;37.20
46356;DHT22;32066;49.474;11.106;2023-03-03T15:26:22;19.70;37.30
46356;DHT22;32066;49.474;11.106;2023-03-03T15:29:01;19.80;37.40
46356;DHT22;32066;49.474;11.106;2023-03-03T15:31:41;19.60;37.70
46356;DHT22;32066;49.474;11.106;2023-03-03T15:34:23;19.50;38.10
46356;DHT22;32066;49.474;11.106;2023-03-03T15:37:01;19.30;38.20
46356;DHT22;32066;49.474;11.106;2023-03-03T15:39:37;18.80;38.50
46356;DHT22;32066;49.474;11.106;2023-03-03T15:42:13;18.50;39.20
46356;DHT22;32066;49.474;11.106;2023-03-03T15:44:58;18.10;39.50
46356;DHT22;32066;49.474;11.106;2023-03-03T15:47:43;17.80;39.90
46356;DHT22;32066;49.474;11.106;2023-03-03T15:50:34;17.60;40.10
46356;DHT22;32066;49.474;11.106;2023-03-03T15:53:16;17.40;40.30
46356;DHT22;32066;49.474;11.106;2023-03-03T15:55:59;17.00;40.70
46356;DHT22;32066;49.474;11.106;2023-03-03T15:58:57;16.90;41.50
46356;DHT22;32066;49.474;11.106;2023-03-03T16:01:33;16.80;41.10
46356;DHT22;32066;49.474;11.106;2023-03-03T16:04:05;16.70;41.40
46356;DHT22;32066;49.474;11.106;2023-03-03T16:06:45;16.50;41.80
46356;DHT22;32066;49.474;11.106;2023-03-03T16:09:33;16.40;42.30
46356;DHT22;32066;49.474;11.106;2023-03-03T16:12:12;16.20;42.60
46356;DHT22;32066;49.474;11.106;2023-03-03T16:14:53;15.90;43.30
46356;DHT22;32066;49.474;11.106;2023-03-03T16:17:34;15.80;43.70
46356;DHT22;32066;49.474;11.106;2023-03-03T16:20:16;15.60;44.20
46356;DHT22;32066;49.474;11.106;2023-03-03T16:22:53;15.50;44.50
46356;DHT22;32066;49.474;11.106;2023-03-03T16:25:46;15.40;45.10
46356;DHT22;32066;49.474;11.106;2023-03-03T16:28:25;15.10;45.50
46356;DHT22;32066;49.474;11.106;2023-03-03T16:30:59;15.20;45.60
46356;DHT22;32066;49.474;11.106;2023-03-03T16:33:36;15.30;45.40
46356;DHT22;32066;49.474;11.106;2023-03-03T16:36:16;15.30;45.70